sensor_id;sensor_type;location;lat;lon;timestamp;P1;durP1;ratioP1;P2;durP2;ratioP2
66264;SDS011;53055;44.648;21.148;2023-02-28T00:02:16;22.92;;;20.42;;
66264;SDS011;53055;44.648;21.148;2023-02-28T00:04:44;24.75;;;21.45;;
66264;SDS011;53055;44.648;21.148;2023-02-28T00:07:17;39.45;;;34.20;;
66264;SDS011;53055;44.648;21.148;2023-02-28T00:09:43;33.33;;;29.08;;
66264;SDS011;53055;44.648;21.148;2023-02-28T00:12:09;36.10;;;31.63;;
66264;SDS011;53055;44.648;21.148;2023-02-28T00:14:36;23.48;;;20.27;;
66264;SDS011;53055;44.648;21.148;2023-02-28T00:17:02;22.98;;;20.08;;
66264;SDS011;53055;44.648;21.148;2023-02-28T00:19:28;56.35;;;46.92;;
66264;SDS011;53055;44.648;21.148;2023-02-28T00:21:54;24.15;;;21.55;;
66264;SDS011;53055;44.648;21.148;2023-02-28T00:24:20;26.30;;;23.15;;
66264;SDS011;53055;44.648;21.148;2023-02-28T00:26:46;39.28;;;31.58;;
66264;SDS011;53055;44.648;21.148;2023-02-28T00:29:12;27.90;;;23.02;;
66264;SDS011;53055;44.648;21.148;2023-02-28T00:31:38;18.02;;;14.98;;
66264;SDS011;53055;44.648;21.148;2023-02-28T00:34:04;18.00;;;15.35;;
66264;SDS011;53055;44.648;21.148;2023-02-28T00:36:30;17.05;;;15.23;;
66264;SDS011;53055;44.648;21.148;2023-02-28T00:38:56;18.05;;;15.27;;
66264;SDS011;53055;44.648;21.148;2023-02-28T00:41:22;19.83;;;16.95;;
66264;SDS011;53055;44.648;21.148;2023-02-28T00:43:48;20.58;;;16.50;;
66264;SDS011;53055;44.648;21.148;2023-02-28T00:46:14;23.17;;;19.70;;
66264;SDS011;53055;44.648;21.148;2023-02-28T00:48:40;20.25;;;17.77;;
66264;SDS011;53055;44.648;21.148;2023-02-28T00:51:06;20.73;;;16.83;;
66264;SDS011;53055;44.648;21.148;2023-02-28T00:53:32;23.38;;;19.83;;
66264;SDS011;53055;44.648;21.148;2023-02-28T00:55:58;37.08;;;33.10;;
66264;SDS011;53055;44.648;21.148;2023-02-28T00:58:25;50.80;;;39.15;;
66264;SDS011;53055;44.648;21.148;2023-02-28T01:00:51;32.28;;;25.58;;
66264;SDS011;53055;44.648;21.148;2023-02-28T01:03:18;31.35;;;26.05;;
66264;SDS011;53055;44.648;21.148;2023-02-28T01:05:44;29.42;;;25.75;;
66264;SDS011;53055;44.648;21.148;2023-02-28T01:08:11;26.05;;;23.25;;
66264;SDS011;53055;44.648;21.148;2023-02-28T01:10:37;28.48;;;25.38;;
66264;SDS011;53055;44.648;21.148;2023-02-28T01:13:03;40.40;;;34.63;;
66264;SDS011;53055;44.648;21.148;2023-02-28T01:15:29;19.92;;;16.23;;
66264;SDS011;53055;44.648;21.148;2023-02-28T01:17:57;19.33;;;16.00;;
66264;SDS011;53055;44.648;21.148;2023-02-28T01:20:23;20.33;;;17.05;;
66264;SDS011;53055;44.648;21.148;2023-02-28T01:22:49;17.92;;;16.00;;
66264;SDS011;53055;44.648;21.148;2023-02-28T01:25:15;18.95;;;16.50;;
66264;SDS011;53055;44.648;21.148;2023-02-28T01:27:41;19.67;;;16.50;;
66264;SDS011;53055;44.648;21.148;2023-02-28T01:30:09;17.95;;;15.80;;
66264;SDS011;53055;44.648;21.148;2023-02-28T01:32:35;18.40;;;16.20;;
66264;SDS011;53055;44.648;21.148;2023-02-28T01:35:01;23.17;;;17.92;;
66264;SDS011;53055;44.648;21.148;2023-02-28T01:37:27;19.00;;;17.00;;
66264;SDS011;53055;44.648;21.148;2023-02-28T01:39:53;20.00;;;17.63;;
66264;SDS011;53055;44.648;21.148;2023-02-28T01:42:20;21.63;;;17.63;;
66264;SDS011;53055;44.648;21.148;2023-02-28T01:45:00;22.00;;;19.00;;
66264;SDS011;53055;44.648;21.148;2023-02-28T01:47:28;26.33;;;22.00;;
66264;SDS011;53055;44.648;21.148;2023-02-28T01:49:54;23.70;;;19.50;;
66264;SDS011;53055;44.648;21.148;2023-02-28T01:52:21;22.65;;;19.20;;
66264;SDS011;53055;44.648;21.148;2023-02-28T01:54:51;21.63;;;18.48;;
66264;SDS011;53055;44.648;21.148;2023-02-28T01:57:18;21.60;;;18.30;;
66264;SDS011;53055;44.648;21.148;2023-02-28T01:59:59;20.83;;;17.58;;
66264;SDS011;53055;44.648;21.148;2023-02-28T02:02:29;19.67;;;17.02;;
66264;SDS011;53055;44.648;21.148;2023-02-28T02:04:57;21.23;;;17.02;;
66264;SDS011;53055;44.648;21.148;2023-02-28T02:07:26;19.38;;;16.30;;
66264;SDS011;53055;44.648;21.148;2023-02-28T02:10:29;20.38;;;16.80;;
66264;SDS011;53055;44.648;21.148;2023-02-28T02:15:31;20.20;;;17.30;;
66264;SDS011;53055;44.648;21.148;2023-02-28T02:17:59;20.65;;;17.83;;
66264;SDS011;53055;44.648;21.148;2023-02-28T02:25:54;21.73;;;18.83;;
66264;SDS011;53055;44.648;21.148;2023-02-28T02:33:38;21.85;;;19.27;;
66264;SDS011;53055;44.648;21.148;2023-02-28T02:38:36;23.00;;;19.40;;
66264;SDS011;53055;44.648;21.148;2023-02-28T02:41:16;21.35;;;18.75;;
66264;SDS011;53055;44.648;21.148;2023-02-28T02:46:14;23.50;;;21.00;;
66264;SDS011;53055;44.648;21.148;2023-02-28T02:48:42;27.23;;;23.45;;
66264;SDS011;53055;44.648;21.148;2023-02-28T02:51:11;28.52;;;25.42;;
66264;SDS011;53055;44.648;21.148;2023-02-28T02:53:56;26.88;;;24.08;;
66264;SDS011;53055;44.648;21.148;2023-02-28T02:56:25;25.95;;;22.33;;
66264;SDS011;53055;44.648;21.148;2023-02-28T02:58:53;23.83;;;21.23;;
66264;SDS011;53055;44.648;21.148;2023-02-28T03:01:22;24.60;;;22.00;;
66264;SDS011;53055;44.648;21.148;2023-02-28T03:04:12;27.15;;;24.30;;
66264;SDS011;53055;44.648;21.148;2023-02-28T03:06:38;34.50;;;29.63;;
66264;SDS011;53055;44.648;21.148;2023-02-28T03:09:05;28.83;;;25.45;;
66264;SDS011;53055;44.648;21.148;2023-02-28T03:11:31;25.95;;;23.23;;
66264;SDS011;53055;44.648;21.148;2023-02-28T03:16:49;25.08;;;22.35;;
66264;SDS011;53055;44.648;21.148;2023-02-28T03:29:47;27.23;;;22.92;;
66264;SDS011;53055;44.648;21.148;2023-02-28T03:32:19;25.85;;;22.10;;
66264;SDS011;53055;44.648;21.148;2023-02-28T03:34:58;24.83;;;22.13;;
66264;SDS011;53055;44.648;21.148;2023-02-28T03:37:28;26.58;;;23.70;;
66264;SDS011;53055;44.648;21.148;2023-02-28T03:39:59;27.50;;;23.92;;
66264;SDS011;53055;44.648;21.148;2023-02-28T03:42:29;27.95;;;22.95;;
66264;SDS011;53055;44.648;21.148;2023-02-28T03:44:57;28.52;;;25.15;;
66264;SDS011;53055;44.648;21.148;2023-02-28T03:47:25;25.63;;;22.65;;
66264;SDS011;53055;44.648;21.148;2023-02-28T03:52:19;24.25;;;21.65;;
66264;SDS011;53055;44.648;21.148;2023-02-28T03:54:48;23.95;;;21.13;;
66264;SDS011;53055;44.648;21.148;2023-02-28T03:57:24;26.75;;;23.42;;
66264;SDS011;53055;44.648;21.148;2023-02-28T04:00:05;27.60;;;22.88;;
66264;SDS011;53055;44.648;21.148;2023-02-28T04:02:32;28.15;;;23.40;;
66264;SDS011;53055;44.648;21.148;2023-02-28T04:04:59;27.27;;;22.63;;
66264;SDS011;53055;44.648;21.148;2023-02-28T04:07:28;25.63;;;22.30;;
66264;SDS011;53055;44.648;21.148;2023-02-28T04:09:55;27.02;;;22.40;;
66264;SDS011;53055;44.648;21.148;2023-02-28T04:12:21;27.95;;;23.55;;
66264;SDS011;53055;44.648;21.148;2023-02-28T04:14:48;29.25;;;25.33;;
66264;SDS011;53055;44.648;21.148;2023-02-28T04:17:14;31.83;;;25.77;;
66264;SDS011;53055;44.648;21.148;2023-02-28T04:19:40;29.42;;;25.15;;
66264;SDS011;53055;44.648;21.148;2023-02-28T04:22:07;29.42;;;24.70;;
66264;SDS011;53055;44.648;21.148;2023-02-28T04:24:34;30.25;;;25.73;;
66264;SDS011;53055;44.648;21.148;2023-02-28T04:27:00;32.28;;;26.63;;
66264;SDS011;53055;44.648;21.148;2023-02-28T04:29:27;31.95;;;26.83;;
66264;SDS011;53055;44.648;21.148;2023-02-28T04:31:54;33.08;;;26.35;;
66264;SDS011;53055;44.648;21.148;2023-02-28T04:34:22;32.33;;;26.90;;
66264;SDS011;53055;44.648;21.148;2023-02-28T04:36:49;29.40;;;25.40;;
66264;SDS011;53055;44.648;21.148;2023-02-28T04:39:16;29.08;;;24.13;;
66264;SDS011;53055;44.648;21.148;2023-02-28T04:41:43;28.08;;;23.10;;
66264;SDS011;53055;44.648;21.148;2023-02-28T04:44:10;27.48;;;23.70;;
66264;SDS011;53055;44.648;21.148;2023-02-28T04:46:36;31.05;;;24.77;;
66264;SDS011;53055;44.648;21.148;2023-02-28T04:49:02;30.33;;;24.35;;
66264;SDS011;53055;44.648;21.148;2023-02-28T04:51:28;28.65;;;24.13;;
66264;SDS011;53055;44.648;21.148;2023-02-28T04:53:54;27.02;;;23.35;;
66264;SDS011;53055;44.648;21.148;2023-02-28T04:56:21;28.85;;;24.33;;
66264;SDS011;53055;44.648;21.148;2023-02-28T04:58:47;27.50;;;24.02;;
66264;SDS011;53055;44.648;21.148;2023-02-28T05:01:18;29.23;;;24.13;;
66264;SDS011;53055;44.648;21.148;2023-02-28T05:03:44;30.00;;;24.33;;
66264;SDS011;53055;44.648;21.148;2023-02-28T05:06:10;30.23;;;25.20;;
66264;SDS011;53055;44.648;21.148;2023-02-28T05:08:37;27.10;;;23.35;;
66264;SDS011;53055;44.648;21.148;2023-02-28T05:11:03;28.48;;;23.63;;
66264;SDS011;53055;44.648;21.148;2023-02-28T05:13:30;28.67;;;24.48;;
66264;SDS011;53055;44.648;21.148;2023-02-28T05:15:56;26.25;;;22.55;;
66264;SDS011;53055;44.648;21.148;2023-02-28T05:18:22;29.95;;;24.58;;
66264;SDS011;53055;44.648;21.148;2023-02-28T05:20:48;27.58;;;22.67;;
66264;SDS011;53055;44.648;21.148;2023-02-28T05:23:14;27.52;;;22.25;;
66264;SDS011;53055;44.648;21.148;2023-02-28T05:25:41;27.98;;;24.25;;
66264;SDS011;53055;44.648;21.148;2023-02-28T05:28:07;29.42;;;23.90;;
66264;SDS011;53055;44.648;21.148;2023-02-28T05:30:33;28.08;;;23.52;;
66264;SDS011;53055;44.648;21.148;2023-02-28T05:32:59;27.50;;;23.55;;
66264;SDS011;53055;44.648;21.148;2023-02-28T05:35:25;27.65;;;23.60;;
66264;SDS011;53055;44.648;21.148;2023-02-28T05:37:52;29.30;;;24.60;;
66264;SDS011;53055;44.648;21.148;2023-02-28T05:40:18;28.55;;;24.92;;
66264;SDS011;53055;44.648;21.148;2023-02-28T05:42:47;27.25;;;24.30;;
66264;SDS011;53055;44.648;21.148;2023-02-28T05:45:13;29.65;;;24.50;;
66264;SDS011;53055;44.648;21.148;2023-02-28T05:47:39;29.77;;;25.15;;
66264;SDS011;53055;44.648;21.148;2023-02-28T05:50:05;28.05;;;24.27;;
66264;SDS011;53055;44.648;21.148;2023-02-28T05:52:31;26.70;;;23.77;;
66264;SDS011;53055;44.648;21.148;2023-02-28T05:54:57;28.27;;;23.58;;
66264;SDS011;53055;44.648;21.148;2023-02-28T05:57:24;28.17;;;24.08;;
66264;SDS011;53055;44.648;21.148;2023-02-28T05:59:50;26.55;;;23.52;;
66264;SDS011;53055;44.648;21.148;2023-02-28T06:02:16;27.17;;;24.20;;
66264;SDS011;53055;44.648;21.148;2023-02-28T06:04:43;28.02;;;23.70;;
66264;SDS011;53055;44.648;21.148;2023-02-28T06:07:09;28.50;;;23.65;;
66264;SDS011;53055;44.648;21.148;2023-02-28T06:09:35;27.88;;;23.30;;
66264;SDS011;53055;44.648;21.148;2023-02-28T06:12:03;28.23;;;23.77;;
66264;SDS011;53055;44.648;21.148;2023-02-28T06:14:30;29.00;;;24.48;;
66264;SDS011;53055;44.648;21.148;2023-02-28T06:16:57;28.48;;;23.98;;
66264;SDS011;53055;44.648;21.148;2023-02-28T06:19:23;29.08;;;24.40;;
66264;SDS011;53055;44.648;21.148;2023-02-28T06:21:50;29.10;;;24.02;;
66264;SDS011;53055;44.648;21.148;2023-02-28T06:24:20;26.77;;;23.45;;
66264;SDS011;53055;44.648;21.148;2023-02-28T06:26:46;27.20;;;22.45;;
66264;SDS011;53055;44.648;21.148;2023-02-28T06:29:12;25.05;;;22.00;;
66264;SDS011;53055;44.648;21.148;2023-02-28T06:31:42;24.52;;;20.83;;
66264;SDS011;53055;44.648;21.148;2023-02-28T06:34:09;25.10;;;20.95;;
66264;SDS011;53055;44.648;21.148;2023-02-28T06:36:36;24.52;;;21.35;;
66264;SDS011;53055;44.648;21.148;2023-02-28T06:39:03;24.00;;;20.52;;
66264;SDS011;53055;44.648;21.148;2023-02-28T06:41:29;23.13;;;20.35;;
66264;SDS011;53055;44.648;21.148;2023-02-28T06:43:55;23.17;;;19.65;;
66264;SDS011;53055;44.648;21.148;2023-02-28T06:46:21;24.77;;;20.83;;
66264;SDS011;53055;44.648;21.148;2023-02-28T06:48:48;28.17;;;23.88;;
66264;SDS011;53055;44.648;21.148;2023-02-28T06:51:15;22.75;;;19.85;;
66264;SDS011;53055;44.648;21.148;2023-02-28T06:53:42;23.88;;;20.80;;
66264;SDS011;53055;44.648;21.148;2023-02-28T06:56:10;25.48;;;21.95;;
66264;SDS011;53055;44.648;21.148;2023-02-28T06:58:36;24.02;;;21.42;;
66264;SDS011;53055;44.648;21.148;2023-02-28T07:01:03;25.27;;;21.75;;
66264;SDS011;53055;44.648;21.148;2023-02-28T07:03:29;22.85;;;20.40;;
66264;SDS011;53055;44.648;21.148;2023-02-28T07:05:55;22.80;;;20.05;;
66264;SDS011;53055;44.648;21.148;2023-02-28T07:08:22;26.85;;;22.50;;
66264;SDS011;53055;44.648;21.148;2023-02-28T07:10:51;28.67;;;24.23;;
66264;SDS011;53055;44.648;21.148;2023-02-28T07:13:18;27.45;;;23.30;;
66264;SDS011;53055;44.648;21.148;2023-02-28T07:15:44;27.05;;;22.88;;
66264;SDS011;53055;44.648;21.148;2023-02-28T07:18:10;26.05;;;22.00;;
66264;SDS011;53055;44.648;21.148;2023-02-28T07:20:36;28.50;;;25.15;;
66264;SDS011;53055;44.648;21.148;2023-02-28T07:23:02;30.17;;;25.80;;
66264;SDS011;53055;44.648;21.148;2023-02-28T07:25:28;28.13;;;23.60;;
66264;SDS011;53055;44.648;21.148;2023-02-28T07:27:55;36.80;;;28.70;;
66264;SDS011;53055;44.648;21.148;2023-02-28T07:30:21;31.60;;;26.27;;
66264;SDS011;53055;44.648;21.148;2023-02-28T07:32:47;29.40;;;24.08;;
66264;SDS011;53055;44.648;21.148;2023-02-28T07:35:13;28.20;;;23.95;;
66264;SDS011;53055;44.648;21.148;2023-02-28T07:37:40;26.60;;;22.88;;
66264;SDS011;53055;44.648;21.148;2023-02-28T07:40:07;28.73;;;25.45;;
66264;SDS011;53055;44.648;21.148;2023-02-28T07:42:38;25.98;;;22.60;;
66264;SDS011;53055;44.648;21.148;2023-02-28T07:45:04;29.20;;;24.50;;
66264;SDS011;53055;44.648;21.148;2023-02-28T07:47:31;30.20;;;25.88;;
66264;SDS011;53055;44.648;21.148;2023-02-28T07:49:57;34.42;;;27.63;;
66264;SDS011;53055;44.648;21.148;2023-02-28T07:52:23;36.53;;;30.23;;
66264;SDS011;53055;44.648;21.148;2023-02-28T07:54:50;42.65;;;34.30;;
66264;SDS011;53055;44.648;21.148;2023-02-28T07:57:16;40.33;;;31.92;;
66264;SDS011;53055;44.648;21.148;2023-02-28T07:59:42;37.45;;;30.15;;
66264;SDS011;53055;44.648;21.148;2023-02-28T08:02:16;31.45;;;26.25;;
66264;SDS011;53055;44.648;21.148;2023-02-28T08:04:43;27.45;;;23.77;;
66264;SDS011;53055;44.648;21.148;2023-02-28T08:07:09;27.35;;;23.77;;
66264;SDS011;53055;44.648;21.148;2023-02-28T08:09:38;27.48;;;21.92;;
66264;SDS011;53055;44.648;21.148;2023-02-28T08:12:04;23.67;;;20.30;;
66264;SDS011;53055;44.648;21.148;2023-02-28T08:14:31;25.65;;;21.67;;
66264;SDS011;53055;44.648;21.148;2023-02-28T08:16:57;26.10;;;23.20;;
66264;SDS011;53055;44.648;21.148;2023-02-28T08:19:23;25.80;;;21.83;;
66264;SDS011;53055;44.648;21.148;2023-02-28T08:21:49;27.30;;;22.55;;
66264;SDS011;53055;44.648;21.148;2023-02-28T08:24:15;25.63;;;21.85;;
66264;SDS011;53055;44.648;21.148;2023-02-28T08:26:41;26.73;;;22.50;;
66264;SDS011;53055;44.648;21.148;2023-02-28T08:29:07;25.35;;;21.85;;
66264;SDS011;53055;44.648;21.148;2023-02-28T08:31:33;25.30;;;22.50;;
66264;SDS011;53055;44.648;21.148;2023-02-28T08:34:04;25.23;;;22.45;;
66264;SDS011;53055;44.648;21.148;2023-02-28T08:36:30;23.67;;;20.88;;
66264;SDS011;53055;44.648;21.148;2023-02-28T08:38:56;22.85;;;20.17;;
66264;SDS011;53055;44.648;21.148;2023-02-28T08:41:23;21.45;;;18.85;;
66264;SDS011;53055;44.648;21.148;2023-02-28T08:43:49;23.73;;;21.05;;
66264;SDS011;53055;44.648;21.148;2023-02-28T08:46:15;24.75;;;21.15;;
66264;SDS011;53055;44.648;21.148;2023-02-28T08:48:41;23.33;;;20.63;;
66264;SDS011;53055;44.648;21.148;2023-02-28T08:51:08;24.38;;;21.65;;
66264;SDS011;53055;44.648;21.148;2023-02-28T08:53:38;25.65;;;22.80;;
66264;SDS011;53055;44.648;21.148;2023-02-28T08:56:06;27.38;;;23.20;;
66264;SDS011;53055;44.648;21.148;2023-02-28T08:58:33;26.25;;;23.35;;
66264;SDS011;53055;44.648;21.148;2023-02-28T09:01:00;28.98;;;24.50;;
66264;SDS011;53055;44.648;21.148;2023-02-28T09:03:26;25.48;;;22.48;;
66264;SDS011;53055;44.648;21.148;2023-02-28T09:05:56;26.05;;;22.40;;
66264;SDS011;53055;44.648;21.148;2023-02-28T09:08:23;26.15;;;23.35;;
66264;SDS011;53055;44.648;21.148;2023-02-28T09:10:50;29.42;;;23.33;;
66264;SDS011;53055;44.648;21.148;2023-02-28T09:13:16;25.85;;;23.05;;
66264;SDS011;53055;44.648;21.148;2023-02-28T09:15:42;27.05;;;23.00;;
66264;SDS011;53055;44.648;21.148;2023-02-28T09:18:08;26.17;;;22.27;;
66264;SDS011;53055;44.648;21.148;2023-02-28T09:20:37;24.63;;;21.45;;
66264;SDS011;53055;44.648;21.148;2023-02-28T09:23:03;26.48;;;21.83;;
66264;SDS011;53055;44.648;21.148;2023-02-28T09:25:29;24.98;;;21.33;;
66264;SDS011;53055;44.648;21.148;2023-02-28T09:27:55;27.13;;;22.17;;
66264;SDS011;53055;44.648;21.148;2023-02-28T09:30:21;27.95;;;22.35;;
66264;SDS011;53055;44.648;21.148;2023-02-28T09:32:47;29.13;;;23.33;;
66264;SDS011;53055;44.648;21.148;2023-02-28T09:35:20;28.88;;;23.40;;
66264;SDS011;53055;44.648;21.148;2023-02-28T09:37:50;27.10;;;22.23;;
66264;SDS011;53055;44.648;21.148;2023-02-28T09:40:17;26.67;;;21.20;;
66264;SDS011;53055;44.648;21.148;2023-02-28T09:42:46;24.55;;;20.52;;
66264;SDS011;53055;44.648;21.148;2023-02-28T09:47:45;24.73;;;21.42;;
66264;SDS011;53055;44.648;21.148;2023-02-28T09:52:45;25.55;;;21.45;;
66264;SDS011;53055;44.648;21.148;2023-02-28T09:57:40;25.95;;;22.02;;
66264;SDS011;53055;44.648;21.148;2023-02-28T10:00:20;26.00;;;22.13;;
66264;SDS011;53055;44.648;21.148;2023-02-28T10:05:36;28.10;;;22.25;;
66264;SDS011;53055;44.648;21.148;2023-02-28T10:08:25;29.58;;;22.90;;
66264;SDS011;53055;44.648;21.148;2023-02-28T10:10:53;28.55;;;22.02;;
66264;SDS011;53055;44.648;21.148;2023-02-28T10:15:51;27.00;;;22.73;;
66264;SDS011;53055;44.648;21.148;2023-02-28T10:18:19;28.63;;;22.02;;
66264;SDS011;53055;44.648;21.148;2023-02-28T10:20:47;26.65;;;22.00;;
66264;SDS011;53055;44.648;21.148;2023-02-28T10:23:27;25.55;;;20.40;;
66264;SDS011;53055;44.648;21.148;2023-02-28T10:25:55;27.98;;;22.15;;
66264;SDS011;53055;44.648;21.148;2023-02-28T10:28:23;26.52;;;21.98;;
66264;SDS011;53055;44.648;21.148;2023-02-28T10:30:51;25.73;;;21.25;;
66264;SDS011;53055;44.648;21.148;2023-02-28T10:33:29;26.95;;;22.08;;
66264;SDS011;53055;44.648;21.148;2023-02-28T10:35:56;25.70;;;20.67;;
66264;SDS011;53055;44.648;21.148;2023-02-28T10:38:23;25.52;;;20.38;;
66264;SDS011;53055;44.648;21.148;2023-02-28T10:40:50;25.92;;;21.35;;
66264;SDS011;53055;44.648;21.148;2023-02-28T10:45:58;25.20;;;20.25;;
66264;SDS011;53055;44.648;21.148;2023-02-28T10:48:32;24.42;;;19.27;;
66264;SDS011;53055;44.648;21.148;2023-02-28T10:50:59;24.90;;;19.90;;
66264;SDS011;53055;44.648;21.148;2023-02-28T10:53:30;23.83;;;19.92;;
66264;SDS011;53055;44.648;21.148;2023-02-28T10:58:31;30.55;;;24.52;;
66264;SDS011;53055;44.648;21.148;2023-02-28T11:00:57;32.38;;;26.30;;
66264;SDS011;53055;44.648;21.148;2023-02-28T11:03:25;48.58;;;39.08;;
66264;SDS011;53055;44.648;21.148;2023-02-28T11:05:54;23.88;;;19.83;;
66264;SDS011;53055;44.648;21.148;2023-02-28T11:08:20;24.88;;;19.98;;
66264;SDS011;53055;44.648;21.148;2023-02-28T11:10:48;26.60;;;22.85;;
66264;SDS011;53055;44.648;21.148;2023-02-28T11:13:19;43.40;;;36.47;;
66264;SDS011;53055;44.648;21.148;2023-02-28T11:15:53;46.45;;;36.15;;
66264;SDS011;53055;44.648;21.148;2023-02-28T11:18:30;94.75;;;66.97;;
66264;SDS011;53055;44.648;21.148;2023-02-28T11:21:00;65.50;;;49.53;;
66264;SDS011;53055;44.648;21.148;2023-02-28T11:23:28;22.50;;;17.58;;
66264;SDS011;53055;44.648;21.148;2023-02-28T11:25:56;20.73;;;17.65;;
66264;SDS011;53055;44.648;21.148;2023-02-28T11:33:44;21.65;;;16.85;;
66264;SDS011;53055;44.648;21.148;2023-02-28T11:36:12;25.40;;;19.98;;
66264;SDS011;53055;44.648;21.148;2023-02-28T11:38:39;24.45;;;20.00;;
66264;SDS011;53055;44.648;21.148;2023-02-28T11:51:23;53.83;;;39.58;;
66264;SDS011;53055;44.648;21.148;2023-02-28T11:56:47;104.15;;;74.25;;
66264;SDS011;53055;44.648;21.148;2023-02-28T12:07:09;53.30;;;40.55;;
66264;SDS011;53055;44.648;21.148;2023-02-28T12:09:46;63.88;;;48.80;;
66264;SDS011;53055;44.648;21.148;2023-02-28T12:12:23;42.92;;;34.95;;
66264;SDS011;53055;44.648;21.148;2023-02-28T12:15:05;59.60;;;45.72;;
66264;SDS011;53055;44.648;21.148;2023-02-28T12:20:12;87.97;;;64.80;;
66264;SDS011;53055;44.648;21.148;2023-02-28T12:22:54;46.88;;;35.63;;
66264;SDS011;53055;44.648;21.148;2023-02-28T12:25:22;45.28;;;35.45;;
66264;SDS011;53055;44.648;21.148;2023-02-28T12:27:50;44.30;;;35.22;;
66264;SDS011;53055;44.648;21.148;2023-02-28T12:30:28;29.65;;;24.58;;
66264;SDS011;53055;44.648;21.148;2023-02-28T12:32:56;46.65;;;36.50;;
66264;SDS011;53055;44.648;21.148;2023-02-28T12:35:28;71.68;;;51.30;;
66264;SDS011;53055;44.648;21.148;2023-02-28T12:43:09;64.97;;;46.60;;
66264;SDS011;53055;44.648;21.148;2023-02-28T12:45:56;76.93;;;53.10;;
66264;SDS011;53055;44.648;21.148;2023-02-28T12:48:27;52.10;;;40.72;;
66264;SDS011;53055;44.648;21.148;2023-02-28T12:50:55;33.20;;;24.67;;
66264;SDS011;53055;44.648;21.148;2023-02-28T12:58:43;42.38;;;32.65;;
66264;SDS011;53055;44.648;21.148;2023-02-28T13:09:13;27.23;;;21.50;;
66264;SDS011;53055;44.648;21.148;2023-02-28T13:14:16;33.65;;;27.02;;
66264;SDS011;53055;44.648;21.148;2023-02-28T13:19:30;32.75;;;27.08;;
66264;SDS011;53055;44.648;21.148;2023-02-28T13:21:57;44.38;;;37.10;;
66264;SDS011;53055;44.648;21.148;2023-02-28T13:29:37;36.20;;;29.20;;
66264;SDS011;53055;44.648;21.148;2023-02-28T13:34:31;55.08;;;47.33;;
66264;SDS011;53055;44.648;21.148;2023-02-28T13:47:22;41.17;;;33.50;;
66264;SDS011;53055;44.648;21.148;2023-02-28T13:49:49;66.22;;;54.17;;
66264;SDS011;53055;44.648;21.148;2023-02-28T13:52:17;28.20;;;21.15;;
66264;SDS011;53055;44.648;21.148;2023-02-28T14:02:16;58.88;;;47.95;;
66264;SDS011;53055;44.648;21.148;2023-02-28T14:07:30;39.67;;;30.70;;
66264;SDS011;53055;44.648;21.148;2023-02-28T14:10:01;41.35;;;31.17;;
66264;SDS011;53055;44.648;21.148;2023-02-28T14:18:04;39.25;;;29.42;;
66264;SDS011;53055;44.648;21.148;2023-02-28T14:20:32;52.50;;;42.75;;
66264;SDS011;53055;44.648;21.148;2023-02-28T14:25:43;37.88;;;29.90;;
66264;SDS011;53055;44.648;21.148;2023-02-28T14:31:07;46.20;;;36.53;;
66264;SDS011;53055;44.648;21.148;2023-02-28T14:38:40;37.95;;;30.50;;
66264;SDS011;53055;44.648;21.148;2023-02-28T14:41:12;40.22;;;31.25;;
66264;SDS011;53055;44.648;21.148;2023-02-28T14:43:47;38.08;;;29.95;;
66264;SDS011;53055;44.648;21.148;2023-02-28T14:46:13;35.10;;;24.63;;
66264;SDS011;53055;44.648;21.148;2023-02-28T14:48:39;33.45;;;24.58;;
66264;SDS011;53055;44.648;21.148;2023-02-28T14:51:06;35.90;;;25.77;;
66264;SDS011;53055;44.648;21.148;2023-02-28T14:53:35;34.28;;;25.20;;
66264;SDS011;53055;44.648;21.148;2023-02-28T14:56:02;36.53;;;26.58;;
66264;SDS011;53055;44.648;21.148;2023-02-28T14:58:29;35.35;;;26.05;;
66264;SDS011;53055;44.648;21.148;2023-02-28T15:00:57;37.35;;;27.02;;
66264;SDS011;53055;44.648;21.148;2023-02-28T15:03:27;42.05;;;30.85;;
66264;SDS011;53055;44.648;21.148;2023-02-28T15:05:56;36.28;;;26.10;;
66264;SDS011;53055;44.648;21.148;2023-02-28T15:08:23;38.20;;;27.10;;
66264;SDS011;53055;44.648;21.148;2023-02-28T15:10:59;40.30;;;28.02;;
66264;SDS011;53055;44.648;21.148;2023-02-28T15:16:22;50.22;;;37.67;;
66264;SDS011;53055;44.648;21.148;2023-02-28T15:21:19;102.60;;;66.68;;
66264;SDS011;53055;44.648;21.148;2023-02-28T15:23:46;81.63;;;50.30;;
66264;SDS011;53055;44.648;21.148;2023-02-28T15:26:15;104.90;;;71.25;;
66264;SDS011;53055;44.648;21.148;2023-02-28T15:28:42;85.15;;;62.92;;
66264;SDS011;53055;44.648;21.148;2023-02-28T15:31:23;61.03;;;42.72;;
66264;SDS011;53055;44.648;21.148;2023-02-28T15:33:52;61.45;;;44.00;;
66264;SDS011;53055;44.648;21.148;2023-02-28T15:36:19;55.30;;;38.33;;
66264;SDS011;53055;44.648;21.148;2023-02-28T15:38:51;50.85;;;37.95;;
66264;SDS011;53055;44.648;21.148;2023-02-28T15:41:25;73.53;;;47.13;;
66264;SDS011;53055;44.648;21.148;2023-02-28T15:46:36;61.60;;;39.97;;
66264;SDS011;53055;44.648;21.148;2023-02-28T15:49:02;55.83;;;38.80;;
66264;SDS011;53055;44.648;21.148;2023-02-28T15:51:35;61.08;;;40.78;;
66264;SDS011;53055;44.648;21.148;2023-02-28T15:54:04;54.60;;;37.33;;
66264;SDS011;53055;44.648;21.148;2023-02-28T15:56:33;47.30;;;33.35;;
66264;SDS011;53055;44.648;21.148;2023-02-28T15:59:02;48.25;;;34.45;;
66264;SDS011;53055;44.648;21.148;2023-02-28T16:01:30;68.20;;;47.08;;
66264;SDS011;53055;44.648;21.148;2023-02-28T16:03:58;47.00;;;34.50;;
66264;SDS011;53055;44.648;21.148;2023-02-28T16:08:51;38.25;;;29.33;;
66264;SDS011;53055;44.648;21.148;2023-02-28T16:11:18;51.83;;;35.38;;
66264;SDS011;53055;44.648;21.148;2023-02-28T16:13:44;63.67;;;45.63;;
66264;SDS011;53055;44.648;21.148;2023-02-28T16:16:14;68.97;;;48.97;;
66264;SDS011;53055;44.648;21.148;2023-02-28T16:18:41;76.97;;;52.38;;
66264;SDS011;53055;44.648;21.148;2023-02-28T16:21:08;80.32;;;50.50;;
66264;SDS011;53055;44.648;21.148;2023-02-28T16:23:34;60.35;;;40.85;;
66264;SDS011;53055;44.648;21.148;2023-02-28T16:26:00;53.42;;;38.00;;
66264;SDS011;53055;44.648;21.148;2023-02-28T16:28:44;42.05;;;30.02;;
66264;SDS011;53055;44.648;21.148;2023-02-28T16:31:10;40.78;;;28.98;;
66264;SDS011;53055;44.648;21.148;2023-02-28T16:33:41;44.33;;;28.77;;
66264;SDS011;53055;44.648;21.148;2023-02-28T16:36:09;44.30;;;29.27;;
66264;SDS011;53055;44.648;21.148;2023-02-28T16:38:35;49.35;;;33.80;;
66264;SDS011;53055;44.648;21.148;2023-02-28T16:41:01;65.53;;;44.47;;
66264;SDS011;53055;44.648;21.148;2023-02-28T16:43:27;49.53;;;33.60;;
66264;SDS011;53055;44.648;21.148;2023-02-28T16:45:54;42.85;;;27.52;;
66264;SDS011;53055;44.648;21.148;2023-02-28T16:48:21;44.15;;;28.38;;
66264;SDS011;53055;44.648;21.148;2023-02-28T16:50:48;40.15;;;27.73;;
66264;SDS011;53055;44.648;21.148;2023-02-28T16:53:14;46.35;;;31.85;;
66264;SDS011;53055;44.648;21.148;2023-02-28T16:55:40;41.17;;;29.40;;